createdAt,value
2018-11-01T00:01:02.194Z,8.50
2018-11-01T00:03:07.846Z,17.70
2018-11-01T00:05:12.972Z,10.40
2018-11-01T00:07:18.482Z,11.73
2018-11-01T00:09:24.227Z,10.30
2018-11-01T00:11:29.895Z,15.43
2018-11-01T00:13:35.237Z,9.43
2018-11-01T00:15:40.174Z,14.47
2018-11-01T00:17:45.883Z,15.60
2018-11-01T00:19:51.506Z,12.83
2018-11-01T00:21:57.934Z,16.83
2018-11-01T00:24:03.535Z,9.70
2018-11-01T00:26:08.690Z,12.77
2018-11-01T00:28:14.591Z,10.43
2018-11-01T00:30:20.301Z,14.90
2018-11-01T00:32:26.152Z,17.57
2018-11-01T00:34:32.133Z,13.47
2018-11-01T00:36:37.549Z,11.87
2018-11-01T00:38:43.025Z,11.10
2018-11-01T00:40:48.746Z,12.70
2018-11-01T00:42:54.633Z,12.60
2018-11-01T00:45:00.721Z,11.20
2018-11-01T00:47:06.619Z,8.67
2018-11-01T00:49:12.710Z,11.67
2018-11-01T00:51:19.118Z,12.23
2018-11-01T00:53:25.221Z,8.87
2018-11-01T00:55:31.679Z,11.07
2018-11-01T00:57:37.069Z,12.10
2018-11-01T00:59:43.250Z,12.43
2018-11-01T01:01:49.555Z,12.17
2018-11-01T01:03:55.496Z,10.37
2018-11-01T01:06:01.617Z,8.73
2018-11-01T01:08:07.571Z,8.03
2018-11-01T01:10:13.450Z,9.23
2018-11-01T01:12:19.091Z,10.07
2018-11-01T01:14:24.841Z,8.10
2018-11-01T01:16:30.472Z,8.50
2018-11-01T01:18:35.666Z,8.70
2018-11-01T01:20:41.262Z,8.27
2018-11-01T01:22:47.448Z,11.77
2018-11-01T01:24:52.855Z,9.93
2018-11-01T01:26:58.384Z,6.37
2018-11-01T01:29:04.703Z,10.43
2018-11-01T01:31:10.426Z,7.10
2018-11-01T01:33:15.803Z,4.57
2018-11-01T01:35:21.673Z,7.30
2018-11-01T01:37:27.806Z,7.83
2018-11-01T01:39:33.557Z,6.20
2018-11-01T01:41:39.121Z,7.90
2018-11-01T01:43:44.400Z,7.60
2018-11-01T01:45:49.982Z,10.20
2018-11-01T01:47:55.682Z,7.40
2018-11-01T01:50:01.470Z,8.87
2018-11-01T01:52:07.005Z,8.17
2018-11-01T01:54:13.177Z,7.60
2018-11-01T01:56:19.241Z,5.10
2018-11-01T01:58:25.115Z,7.20
2018-11-01T02:00:31.350Z,4.70
2018-11-01T02:02:36.857Z,7.07
2018-11-01T02:04:42.287Z,5.33
2018-11-01T02:06:47.666Z,7.17
2018-11-01T02:08:53.597Z,9.63
2018-11-01T02:10:59.054Z,8.97
2018-11-01T02:13:04.994Z,7.93
2018-11-01T02:15:10.462Z,5.83
2018-11-01T02:17:16.035Z,5.20
2018-11-01T02:19:21.880Z,8.23
2018-11-01T02:21:27.972Z,7.33
2018-11-01T02:23:33.275Z,6.17
2018-11-01T02:25:39.823Z,5.77
2018-11-01T02:27:49.768Z,8.17
2018-11-01T02:29:54.749Z,8.03
2018-11-01T02:31:59.931Z,5.77
2018-11-01T02:34:05.401Z,8.47
2018-11-01T02:36:11.133Z,5.47
2018-11-01T02:38:16.463Z,6.40
2018-11-01T02:40:22.345Z,6.80
2018-11-01T02:42:28.351Z,5.40
2018-11-01T02:44:34.517Z,6.10
2018-11-01T02:46:40.159Z,6.50
2018-11-01T02:48:46.833Z,5.70
2018-11-01T02:50:52.557Z,5.73
2018-11-01T02:52:58.495Z,4.70
2018-11-01T02:55:03.847Z,4.83
2018-11-01T02:57:09.238Z,8.90
2018-11-01T02:59:17.657Z,5.17
2018-11-01T03:01:23.735Z,5.43
2018-11-01T03:03:29.600Z,5.33
2018-11-01T03:05:34.895Z,5.00
2018-11-01T03:07:40.721Z,3.57
2018-11-01T03:09:46.290Z,3.87
2018-11-01T03:11:51.332Z,4.00
2018-11-01T03:13:56.532Z,6.60
2018-11-01T03:16:01.883Z,6.60
2018-11-01T03:18:07.684Z,5.77
2018-11-01T03:20:14.348Z,6.57
2018-11-01T03:22:20.173Z,7.00
2018-11-01T03:24:25.852Z,3.73
2018-11-01T03:26:31.571Z,5.00
2018-11-01T03:28:37.441Z,6.00
2018-11-01T03:30:42.927Z,4.87
2018-11-01T03:32:48.515Z,5.73
2018-11-01T03:34:54.233Z,8.00
2018-11-01T03:36:59.853Z,4.33
2018-11-01T03:39:06.281Z,6.73
2018-11-01T03:41:12.136Z,3.47
2018-11-01T03:43:17.730Z,4.30
2018-11-01T03:45:23.372Z,5.00
2018-11-01T03:47:28.786Z,5.83
2018-11-01T03:49:34.165Z,4.70
2018-11-01T03:51:39.647Z,4.80
2018-11-01T03:53:45.317Z,4.27
2018-11-01T03:55:51.646Z,4.43
2018-11-01T03:57:57.486Z,4.60
2018-11-01T04:00:04.877Z,4.73
2018-11-01T04:02:10.557Z,3.83
2018-11-01T04:04:15.835Z,6.03
2018-11-01T04:06:21.632Z,5.40
2018-11-01T04:08:26.939Z,3.90
2018-11-01T04:10:31.860Z,4.53
2018-11-01T04:12:37.137Z,4.70
2018-11-01T04:14:42.804Z,5.63
2018-11-01T04:16:48.297Z,5.27
2018-11-01T04:18:53.833Z,5.90
2018-11-01T04:20:58.942Z,4.23
2018-11-01T04:23:04.785Z,3.40
2018-11-01T04:25:09.900Z,5.00
2018-11-01T04:27:15.455Z,3.60
2018-11-01T04:29:21.261Z,9.97
2018-11-01T04:31:26.583Z,4.33
2018-11-01T04:33:32.172Z,4.63
2018-11-01T04:35:37.935Z,4.60
2018-11-01T04:37:43.324Z,8.20
2018-11-01T04:39:48.751Z,4.40
2018-11-01T04:41:55.633Z,4.93
2018-11-01T04:44:01.506Z,3.90
2018-11-01T04:46:07.067Z,5.57
2018-11-01T04:48:12.604Z,5.23
2018-11-01T04:50:17.881Z,4.00
2018-11-01T04:52:23.673Z,3.50
2018-11-01T04:54:29.128Z,3.90
2018-11-01T04:56:34.683Z,4.03
2018-11-01T04:58:42.288Z,4.43
2018-11-01T05:00:47.562Z,4.30
2018-11-01T05:02:53.180Z,5.27
2018-11-01T05:04:59.062Z,5.73
2018-11-01T05:07:04.701Z,4.30
2018-11-01T05:09:10.021Z,7.63
2018-11-01T05:11:15.648Z,5.00
2018-11-01T05:13:20.902Z,4.30
2018-11-01T05:15:26.787Z,4.17
2018-11-01T05:17:32.461Z,4.13
2018-11-01T05:19:38.310Z,4.50
2018-11-01T05:21:44.549Z,5.13
2018-11-01T05:23:49.922Z,4.10
2018-11-01T05:25:55.572Z,3.67
2018-11-01T05:28:03.194Z,4.80
2018-11-01T05:30:09.014Z,4.00
2018-11-01T05:32:15.011Z,5.57
2018-11-01T05:34:20.949Z,4.60
2018-11-01T05:36:26.507Z,4.30
2018-11-01T05:38:31.611Z,4.43
2018-11-01T05:40:37.289Z,4.43
2018-11-01T05:42:43.590Z,3.73
2018-11-01T05:44:49.271Z,4.93
2018-11-01T05:46:55.829Z,4.20
2018-11-01T05:49:01.330Z,4.23
2018-11-01T05:51:06.905Z,5.07
2018-11-01T05:53:12.866Z,3.93
2018-11-01T05:55:18.005Z,4.70
2018-11-01T05:57:23.623Z,5.10
2018-11-01T05:59:29.694Z,4.40
2018-11-01T06:01:37.778Z,4.20
2018-11-01T06:03:43.560Z,4.13
2018-11-01T06:05:49.429Z,3.70
2018-11-01T06:07:59.189Z,4.07
2018-11-01T06:10:04.610Z,4.13
2018-11-01T06:12:10.095Z,6.30
2018-11-01T06:14:18.198Z,4.00
2018-11-01T06:16:23.498Z,5.00
2018-11-01T06:18:29.118Z,5.97
2018-11-01T06:20:34.856Z,3.43
2018-11-01T06:22:40.687Z,4.63
2018-11-01T06:24:46.013Z,7.17
2018-11-01T06:26:51.698Z,4.17
2018-11-01T06:28:57.381Z,4.40
2018-11-01T06:31:02.901Z,4.50
2018-11-01T06:33:08.441Z,5.20
2018-11-01T06:35:26.513Z,5.53
2018-11-01T06:37:31.667Z,6.63
2018-11-01T06:39:37.394Z,5.30
2018-11-01T06:41:42.884Z,4.23
2018-11-01T06:43:48.379Z,4.10
2018-11-01T06:45:53.488Z,4.57
2018-11-01T06:47:58.835Z,4.00
2018-11-01T06:50:03.919Z,5.80
2018-11-01T06:52:09.659Z,5.03
2018-11-01T06:54:15.594Z,4.90
2018-11-01T06:56:21.216Z,4.53
2018-11-01T06:58:28.054Z,5.73
2018-11-01T07:00:33.620Z,3.70
2018-11-01T07:02:39.125Z,4.33
2018-11-01T07:04:44.213Z,3.93
2018-11-01T07:06:50.378Z,3.70
2018-11-01T07:08:56.150Z,5.87
2018-11-01T07:11:01.783Z,6.77
2018-11-01T07:13:08.152Z,5.37
2018-11-01T07:15:14.904Z,5.27
2018-11-01T07:17:20.221Z,6.47
2018-11-01T07:19:25.931Z,5.60
2018-11-01T07:21:31.609Z,4.23
2018-11-01T07:23:37.081Z,4.50
2018-11-01T07:25:42.500Z,4.63
2018-11-01T07:27:47.963Z,4.73
2018-11-01T07:29:53.535Z,6.13
2018-11-01T07:31:59.263Z,4.00
2018-11-01T07:34:04.986Z,3.47
2018-11-01T07:36:10.488Z,3.93
2018-11-01T07:39:18.445Z,3.50
2018-11-01T07:41:23.782Z,4.60
2018-11-01T07:43:29.650Z,3.80
2018-11-01T07:45:49.290Z,4.20
2018-11-01T07:47:54.970Z,3.40
2018-11-01T07:50:00.110Z,4.60
2018-11-01T07:52:05.480Z,4.27
2018-11-01T07:54:11.117Z,4.80
2018-11-01T07:56:16.518Z,4.30
2018-11-01T07:58:23.384Z,3.87
2018-11-01T08:00:28.871Z,3.87
2018-11-01T08:02:34.405Z,4.43
2018-11-01T08:04:39.895Z,5.13
2018-11-01T08:06:45.491Z,5.37
2018-11-01T08:08:50.907Z,3.43
2018-11-01T08:10:56.400Z,3.60
2018-11-01T08:13:01.886Z,3.60
2018-11-01T08:15:07.873Z,3.37
2018-11-01T08:17:13.201Z,4.10
2018-11-01T08:19:18.473Z,6.23
2018-11-01T08:21:24.097Z,6.10
2018-11-01T08:23:29.314Z,5.67
2018-11-01T08:25:34.857Z,4.70
2018-11-01T08:27:40.836Z,5.63
2018-11-01T08:29:46.131Z,4.87
2018-11-01T08:31:51.535Z,4.93
2018-11-01T08:33:57.108Z,4.90
2018-11-01T08:36:02.806Z,4.63
2018-11-01T08:38:08.346Z,4.33
2018-11-01T08:40:14.161Z,6.47
2018-11-01T08:42:19.497Z,4.90
2018-11-01T08:44:24.699Z,7.40
2018-11-01T08:46:30.287Z,5.40
2018-11-01T08:48:35.452Z,16.13
2018-11-01T08:50:40.819Z,16.77
2018-11-01T08:52:46.150Z,16.37
2018-11-01T08:54:51.549Z,15.83
2018-11-01T08:56:56.750Z,7.77
2018-11-01T08:59:02.015Z,8.83
2018-11-01T09:01:06.816Z,11.40
2018-11-01T09:03:12.442Z,14.37
2018-11-01T09:05:19.067Z,9.57
2018-11-01T09:07:24.192Z,8.63
2018-11-01T09:09:29.722Z,11.63
2018-11-01T09:11:35.332Z,11.40
2018-11-01T09:13:40.778Z,10.80
2018-11-01T09:15:46.672Z,13.67
2018-11-01T09:17:52.472Z,6.60
2018-11-01T09:19:57.533Z,6.67
2018-11-01T09:22:02.805Z,7.00
2018-11-01T09:24:08.633Z,6.27
2018-11-01T09:26:13.928Z,7.30
2018-11-01T09:28:19.554Z,6.30
2018-11-01T09:30:25.763Z,5.70
2018-11-01T09:32:31.602Z,6.40
2018-11-01T09:34:37.346Z,5.67
2018-11-01T09:36:42.795Z,7.20
2018-11-01T09:38:48.879Z,6.63
2018-11-01T09:40:56.027Z,6.30
2018-11-01T09:43:01.277Z,6.40
2018-11-01T09:45:06.938Z,8.93
2018-11-01T09:47:12.453Z,6.50
2018-11-01T09:49:18.163Z,9.83
2018-11-01T09:51:23.580Z,6.20
2018-11-01T09:53:29.401Z,5.73
2018-11-01T09:55:35.099Z,6.33
2018-11-01T09:57:40.545Z,6.47
2018-11-01T09:59:45.383Z,7.03
2018-11-01T10:01:51.079Z,11.40
2018-11-01T10:03:56.637Z,6.70
2018-11-01T10:06:02.279Z,9.50
2018-11-01T10:08:08.014Z,7.17
2018-11-01T10:10:13.891Z,6.70
2018-11-01T10:12:20.105Z,9.83
2018-11-01T10:14:26.078Z,8.33
2018-11-01T10:16:31.912Z,8.37
2018-11-01T10:18:37.440Z,7.27
2018-11-01T10:20:42.789Z,5.17
2018-11-01T10:22:48.225Z,6.40
2018-11-01T10:24:53.446Z,6.23
2018-11-01T10:26:58.664Z,11.03
2018-11-01T10:29:03.812Z,9.83
2018-11-01T10:31:09.597Z,9.47
2018-11-01T10:33:15.767Z,13.70
2018-11-01T10:35:22.054Z,11.70
2018-11-01T10:37:27.577Z,10.00
2018-11-01T10:39:32.932Z,13.00
2018-11-01T10:41:38.647Z,11.17
2018-11-01T10:43:43.942Z,11.00
2018-11-01T10:45:48.580Z,9.93
2018-11-01T10:47:53.103Z,16.40
2018-11-01T10:49:57.553Z,9.13
2018-11-01T10:52:02.350Z,9.33
2018-11-01T10:54:08.236Z,11.70
2018-11-01T10:56:12.856Z,12.70
2018-11-01T10:58:17.554Z,10.70
2018-11-01T11:00:26.859Z,7.70
2018-11-01T11:02:32.378Z,9.30
2018-11-01T11:04:37.449Z,9.03
2018-11-01T11:06:42.842Z,9.50
2018-11-01T11:08:47.813Z,11.87
2018-11-01T11:13:23.355Z,10.10
2018-11-01T11:15:28.699Z,8.80
2018-11-01T11:17:33.637Z,10.50
2018-11-01T11:19:38.625Z,7.07
2018-11-01T11:21:43.658Z,11.17
2018-11-01T11:23:48.792Z,9.17
2018-11-01T11:25:55.148Z,8.57
2018-11-01T11:28:00.331Z,7.23
2018-11-01T11:30:05.565Z,7.60
2018-11-01T11:32:11.104Z,11.10
2018-11-01T11:34:16.051Z,11.17
2018-11-01T11:36:20.762Z,10.40
2018-11-01T11:38:26.317Z,10.03
2018-11-01T11:40:31.698Z,7.00
2018-11-01T11:42:37.049Z,8.10
2018-11-01T11:44:43.115Z,9.60
2018-11-01T11:46:48.421Z,11.07
2018-11-01T11:48:53.288Z,8.13
2018-11-01T11:50:58.484Z,8.03
2018-11-01T11:53:03.724Z,10.80
2018-11-01T11:55:08.813Z,6.77
2018-11-01T11:57:13.992Z,8.37
2018-11-01T11:59:19.441Z,8.50
2018-11-01T12:01:25.477Z,8.67
2018-11-01T12:03:30.378Z,7.97
2018-11-01T12:05:35.270Z,7.80
2018-11-01T12:07:41.080Z,8.80
2018-11-01T12:09:46.575Z,8.90
2018-11-01T12:11:51.506Z,6.70
2018-11-01T12:13:56.659Z,8.57
2018-11-01T12:16:01.510Z,6.40
2018-11-01T12:18:06.747Z,6.03
2018-11-01T12:20:12.338Z,6.13
2018-11-01T12:22:17.517Z,7.17
2018-11-01T12:24:22.938Z,8.50
2018-11-01T12:26:28.148Z,7.33
2018-11-01T12:28:33.236Z,8.70
2018-11-01T12:30:38.307Z,6.30
2018-11-01T12:32:43.702Z,11.43
2018-11-01T12:34:48.560Z,7.47
2018-11-01T12:36:53.709Z,7.10
2018-11-01T12:38:58.605Z,7.83
2018-11-01T12:41:03.481Z,5.80
2018-11-01T12:43:08.725Z,11.17
2018-11-01T12:45:14.972Z,7.80
2018-11-01T12:47:20.373Z,6.60
2018-11-01T12:49:24.895Z,7.10
2018-11-01T12:51:29.430Z,7.10
2018-11-01T12:53:34.613Z,6.33
2018-11-01T12:55:39.813Z,6.20
2018-11-01T12:57:44.836Z,6.60
2018-11-01T12:59:50.553Z,8.37
2018-11-01T13:01:55.392Z,6.70
2018-11-01T13:04:00.674Z,8.10
2018-11-01T13:06:06.079Z,8.80
2018-11-01T13:08:11.428Z,8.10
2018-11-01T13:10:17.091Z,5.90
2018-11-01T13:12:22.361Z,6.93
2018-11-01T13:14:27.257Z,6.00
2018-11-01T13:16:32.591Z,6.10
2018-11-01T13:18:37.848Z,5.60
2018-11-01T13:20:43.905Z,6.77
2018-11-01T13:22:49.633Z,6.30
2018-11-01T13:24:54.607Z,6.83
2018-11-01T13:27:00.284Z,4.90
2018-11-01T13:29:05.491Z,6.20
2018-11-01T13:31:10.270Z,7.57
2018-11-01T13:33:15.390Z,8.97
2018-11-01T13:35:20.800Z,5.77
2018-11-01T13:37:26.138Z,5.60
2018-11-01T13:39:31.213Z,6.03
2018-11-01T13:41:36.723Z,5.93
2018-11-01T13:43:42.126Z,5.07
2018-11-01T13:45:47.247Z,7.27
2018-11-01T13:47:52.251Z,6.43
2018-11-01T13:49:57.313Z,5.83
2018-11-01T13:52:02.705Z,6.10
2018-11-01T13:54:07.583Z,7.27
2018-11-01T13:56:12.596Z,5.63
2018-11-01T13:58:17.837Z,5.33
2018-11-01T14:00:22.623Z,5.80
2018-11-01T14:02:28.902Z,5.37
2018-11-01T14:04:34.409Z,7.00
2018-11-01T14:06:39.795Z,6.27
2018-11-01T14:08:45.174Z,5.13
2018-11-01T14:10:50.065Z,6.10
2018-11-01T14:12:55.453Z,9.57
2018-11-01T14:15:00.937Z,7.17
2018-11-01T14:17:05.918Z,5.00
2018-11-01T14:19:11.233Z,7.30
2018-11-01T14:21:16.354Z,5.57
2018-11-01T14:23:21.571Z,10.80
2018-11-01T14:25:27.189Z,7.63
2018-11-01T14:27:32.639Z,5.70
2018-11-01T14:29:37.627Z,5.77
2018-11-01T14:31:42.707Z,5.93
2018-11-01T14:33:47.556Z,5.30
2018-11-01T14:35:52.710Z,5.53
2018-11-01T14:37:58.144Z,7.27
2018-11-01T14:40:03.542Z,7.27
2018-11-01T14:42:08.750Z,5.37
2018-11-01T14:44:14.038Z,6.83
2018-11-01T14:46:19.311Z,5.23
2018-11-01T14:48:24.669Z,4.90
2018-11-01T14:50:29.845Z,6.40
2018-11-01T14:52:35.482Z,7.03
2018-11-01T14:54:41.484Z,5.77
2018-11-01T14:56:47.334Z,5.53
2018-11-01T14:58:52.386Z,5.80
2018-11-01T15:00:56.840Z,6.67
2018-11-01T15:03:01.835Z,5.83
2018-11-01T15:05:06.743Z,5.50
2018-11-01T15:07:11.682Z,6.57
2018-11-01T15:09:16.998Z,5.37
2018-11-01T15:11:21.943Z,5.87
2018-11-01T15:13:26.736Z,5.53
2018-11-01T15:15:32.038Z,6.00
2018-11-01T15:17:37.430Z,6.43
2018-11-01T15:19:42.400Z,6.27
2018-11-01T15:21:47.328Z,5.50
2018-11-01T15:23:52.436Z,5.90
2018-11-01T15:25:58.132Z,5.77
2018-11-01T15:28:03.029Z,7.27
2018-11-01T15:30:08.012Z,6.17
2018-11-01T15:32:16.791Z,5.00
2018-11-01T15:34:21.891Z,4.57
2018-11-01T15:36:27.212Z,5.10
2018-11-01T15:38:32.195Z,6.70
2018-11-01T15:40:37.345Z,5.13
2018-11-01T15:42:43.445Z,6.00
2018-11-01T15:44:49.180Z,5.63
2018-11-01T15:46:54.136Z,4.87
2018-11-01T15:48:59.547Z,5.53
2018-11-01T15:51:04.635Z,4.40
2018-11-01T15:53:09.774Z,5.27
2018-11-01T15:55:15.278Z,5.90
2018-11-01T15:57:20.281Z,5.13
2018-11-01T15:59:25.326Z,4.93
2018-11-01T16:01:31.034Z,4.97
2018-11-01T16:03:36.377Z,5.20
2018-11-01T16:05:42.057Z,5.33
2018-11-01T16:07:47.445Z,5.60
2018-11-01T16:09:52.723Z,5.70
2018-11-01T16:11:57.906Z,6.00
2018-11-01T16:14:03.042Z,5.77
2018-11-01T16:16:08.246Z,5.67
2018-11-01T16:18:13.260Z,5.17
2018-11-01T16:20:18.467Z,6.87
2018-11-01T16:22:24.842Z,5.47
2018-11-01T16:24:30.109Z,5.60
2018-11-01T16:26:35.445Z,7.43
2018-11-01T16:28:40.474Z,5.90
2018-11-01T16:30:45.878Z,4.90
2018-11-01T16:32:51.135Z,4.37
2018-11-01T16:34:56.213Z,4.77
2018-11-01T16:37:01.161Z,5.47
2018-11-01T16:39:07.930Z,6.67
2018-11-01T16:41:12.967Z,5.20
2018-11-01T16:43:17.919Z,5.37
2018-11-01T16:45:23.363Z,5.70
2018-11-01T16:47:28.633Z,5.00
2018-11-01T16:49:33.560Z,6.50
2018-11-01T16:51:38.790Z,5.70
2018-11-01T16:53:43.973Z,6.07
2018-11-01T16:55:49.426Z,6.97
2018-11-01T16:57:54.573Z,5.40
2018-11-01T16:59:59.568Z,4.80
2018-11-01T17:02:04.832Z,5.80
2018-11-01T17:04:10.039Z,5.00
2018-11-01T17:06:15.074Z,6.13
2018-11-01T17:08:21.414Z,5.77
2018-11-01T17:10:26.645Z,5.10
2018-11-01T17:12:31.843Z,6.10
2018-11-01T17:14:37.841Z,6.40
2018-11-01T17:16:43.187Z,5.73
2018-11-01T17:18:48.311Z,6.07
2018-11-01T17:20:53.595Z,5.83
2018-11-01T17:22:59.125Z,6.70
2018-11-01T17:25:04.238Z,7.50
2018-11-01T17:27:09.751Z,5.60
2018-11-01T17:29:14.853Z,7.63
2018-11-01T17:31:19.805Z,5.67
2018-11-01T17:33:24.750Z,4.73
2018-11-01T17:35:30.054Z,5.53
2018-11-01T17:37:35.139Z,5.70
2018-11-01T17:39:40.304Z,5.17
2018-11-01T17:41:45.187Z,5.30
2018-11-01T17:43:50.541Z,5.00
2018-11-01T17:45:55.757Z,4.53
2018-11-01T17:48:01.202Z,5.87
2018-11-01T17:50:06.358Z,4.90
2018-11-01T17:52:11.900Z,4.90
2018-11-01T17:54:18.628Z,6.63
2018-11-01T17:56:24.047Z,4.67
2018-11-01T17:58:29.375Z,6.27
2018-11-01T18:00:35.715Z,5.20
2018-11-01T18:02:41.248Z,5.83
2018-11-01T18:04:47.073Z,5.90
2018-11-01T18:06:52.314Z,5.50
2018-11-01T18:08:57.550Z,5.20
2018-11-01T18:11:02.634Z,5.40
2018-11-01T18:13:07.589Z,5.37
2018-11-01T18:15:12.458Z,5.10
2018-11-01T18:17:17.336Z,5.63
2018-11-01T18:19:22.598Z,5.13
2018-11-01T18:21:27.495Z,6.40
2018-11-01T18:23:32.498Z,6.13
2018-11-01T18:25:41.647Z,6.20
2018-11-01T18:27:47.635Z,6.30
2018-11-01T18:29:52.894Z,8.70
2018-11-01T18:31:58.019Z,7.27
2018-11-01T18:34:03.515Z,6.13
2018-11-01T18:36:09.162Z,6.27
2018-11-01T18:38:14.046Z,6.10
2018-11-01T18:40:21.653Z,6.63
2018-11-01T18:42:27.091Z,6.80
2018-11-01T18:44:32.368Z,6.53
2018-11-01T18:46:38.117Z,6.07
2018-11-01T18:48:43.548Z,6.10
2018-11-01T18:50:48.949Z,6.23
2018-11-01T18:52:53.888Z,7.23
2018-11-01T18:54:59.705Z,6.60
2018-11-01T18:57:04.435Z,7.37
2018-11-01T18:59:09.855Z,8.20
2018-11-01T19:01:14.755Z,7.50
2018-11-01T19:03:23.627Z,6.00
2018-11-01T19:05:29.053Z,6.10
2018-11-01T19:07:34.372Z,6.40
2018-11-01T19:09:39.247Z,6.50
2018-11-01T19:11:44.849Z,6.40
2018-11-01T19:13:50.529Z,6.57
2018-11-01T19:15:56.026Z,6.43
2018-11-01T19:20:36.201Z,6.33
2018-11-01T19:22:41.692Z,6.80
2018-11-01T19:24:46.964Z,7.03
2018-11-01T19:26:52.124Z,5.70
2018-11-01T19:28:57.510Z,6.70
2018-11-01T19:31:03.101Z,6.50
2018-11-01T19:33:08.567Z,6.33
2018-11-01T19:35:15.488Z,6.90
2018-11-01T19:37:20.480Z,6.43
2018-11-01T19:39:26.066Z,7.63
2018-11-01T19:41:31.409Z,6.47
2018-11-01T19:43:36.204Z,6.80
2018-11-01T19:45:41.243Z,5.97
2018-11-01T19:47:46.611Z,6.23
2018-11-01T19:49:51.576Z,6.53
2018-11-01T19:51:56.774Z,7.33
2018-11-01T19:54:02.137Z,6.17
2018-11-01T19:56:07.335Z,5.97
2018-11-01T19:58:12.801Z,6.07
2018-11-01T20:00:18.643Z,6.13
2018-11-01T20:02:23.597Z,6.60
2018-11-01T20:04:28.477Z,7.83
2018-11-01T20:06:33.378Z,5.53
2018-11-01T20:08:38.831Z,10.53
2018-11-01T20:10:43.871Z,6.30
2018-11-01T20:12:49.183Z,8.13
2018-11-01T20:14:54.266Z,7.00
2018-11-01T20:17:00.143Z,5.43
2018-11-01T20:19:05.508Z,7.60
2018-11-01T20:21:10.958Z,5.97
2018-11-01T20:23:16.350Z,6.30
2018-11-01T20:25:21.565Z,8.90
2018-11-01T20:27:26.767Z,7.93
2018-11-01T20:29:31.806Z,5.93
2018-11-01T20:31:37.009Z,6.50
2018-11-01T20:33:42.358Z,6.00
2018-11-01T20:35:47.851Z,6.17
2018-11-01T20:37:52.832Z,6.67
2018-11-01T20:39:58.298Z,6.10
2018-11-01T20:42:03.788Z,6.40
2018-11-01T20:44:09.080Z,6.87
2018-11-01T20:46:14.144Z,5.97
2018-11-01T20:48:19.750Z,7.50
2018-11-01T20:50:24.779Z,6.57
2018-11-01T20:52:30.211Z,6.53
2018-11-01T20:54:35.594Z,6.33
2018-11-01T20:56:40.668Z,8.33
2018-11-01T20:58:46.349Z,6.37
2018-11-01T21:00:51.971Z,7.37
2018-11-01T21:02:57.084Z,8.03
2018-11-01T21:05:02.735Z,6.53
2018-11-01T21:07:08.568Z,5.90
2018-11-01T21:09:14.299Z,5.63
2018-11-01T21:11:19.545Z,6.50
2018-11-01T21:13:26.178Z,6.50
2018-11-01T21:15:31.290Z,7.20
2018-11-01T21:17:36.856Z,6.23
2018-11-01T21:19:42.129Z,7.83
2018-11-01T21:21:47.681Z,7.30
2018-11-01T21:23:52.912Z,6.17
2018-11-01T21:25:58.145Z,6.30
2018-11-01T21:28:03.893Z,9.30
2018-11-01T21:30:09.316Z,5.10
2018-11-01T21:32:14.615Z,7.07
2018-11-01T21:34:20.189Z,6.30
2018-11-01T21:36:25.355Z,5.97
2018-11-01T21:38:30.929Z,6.57
2018-11-01T21:40:36.744Z,7.80
2018-11-01T21:42:42.752Z,6.53
2018-11-01T21:44:47.990Z,6.57
2018-11-01T21:46:53.579Z,7.47
2018-11-01T21:48:59.070Z,5.80
2018-11-01T21:51:04.528Z,6.70
2018-11-01T21:53:09.751Z,6.83
2018-11-01T21:55:15.543Z,6.63
2018-11-01T21:57:20.792Z,5.80
2018-11-01T21:59:26.458Z,6.03
2018-11-01T22:01:31.549Z,6.30
2018-11-01T22:03:37.762Z,6.30
2018-11-01T22:05:43.442Z,4.97
2018-11-01T22:07:48.602Z,5.80
2018-11-01T22:09:54.168Z,5.37
2018-11-01T22:11:59.388Z,5.43
2018-11-01T22:14:05.384Z,7.83
2018-11-01T22:16:11.433Z,5.87
2018-11-01T22:18:17.047Z,6.70
2018-11-01T22:20:22.466Z,6.13
2018-11-01T22:22:27.747Z,6.30
2018-11-01T22:24:33.139Z,5.90
2018-11-01T22:26:38.739Z,6.00
2018-11-01T22:28:44.293Z,5.83
2018-11-01T22:30:49.727Z,5.03
2018-11-01T22:32:55.238Z,4.90
2018-11-01T22:35:00.716Z,5.60
2018-11-01T22:37:05.758Z,6.40
2018-11-01T22:39:12.185Z,5.17
2018-11-01T22:41:17.481Z,5.43
2018-11-01T22:43:22.669Z,6.47
2018-11-01T22:45:28.260Z,6.03
2018-11-01T22:47:33.622Z,5.33
2018-11-01T22:49:39.241Z,5.33
2018-11-01T22:51:45.147Z,5.90
2018-11-01T22:53:50.441Z,6.47
2018-11-01T22:55:55.717Z,5.90
2018-11-01T22:58:01.026Z,6.03
2018-11-01T23:00:06.662Z,5.43
2018-11-01T23:02:12.320Z,5.33
2018-11-01T23:04:18.058Z,5.57
2018-11-01T23:06:29.389Z,5.60
2018-11-01T23:08:34.987Z,6.00
2018-11-01T23:10:40.265Z,5.83
2018-11-01T23:12:45.814Z,6.23
2018-11-01T23:14:51.474Z,6.93
2018-11-01T23:16:57.120Z,6.17
2018-11-01T23:19:03.039Z,7.03
2018-11-01T23:21:09.068Z,5.93
2018-11-01T23:23:14.977Z,5.53
2018-11-01T23:25:20.776Z,8.20
2018-11-01T23:27:26.182Z,7.50
2018-11-01T23:29:31.939Z,7.00
2018-11-01T23:31:37.383Z,6.00
2018-11-01T23:33:43.067Z,7.40
2018-11-01T23:35:48.665Z,6.90
2018-11-01T23:37:58.230Z,5.50
2018-11-01T23:40:07.475Z,6.23
2018-11-01T23:42:16.697Z,7.00
2018-11-01T23:44:25.958Z,8.37
2018-11-01T23:46:35.908Z,7.23
2018-11-01T23:48:39.267Z,6.90
2018-11-01T23:50:49.525Z,6.73
2018-11-01T23:52:56.979Z,7.20
2018-11-01T23:55:01.957Z,7.77
2018-11-01T23:57:07.586Z,9.10
2018-11-01T23:59:12.909Z,7.40
